Time;durP1;ratioP1;P1;durP2;ratioP2;P2;SDS_P1;SDS_P2;PMS_P1;PMS_P2;Temp;Humidity;BMP_temperature;BMP_pressure;BME280_temperature;BME280_humidity;BME280_pressure;Samples;Min_cycle;Max_cycle;Signal;HPM_P1;HPM_P2
2022/05/06 00:00:11;;;;;;;16.33;10.95;;;9.80;99.90;;;;;;4808391;29;20047;-71
2022/05/06 00:02:37;;;;;;;16.17;10.25;;;9.80;99.90;;;;;;4807279;29;20055;-72
2022/05/06 00:05:04;;;;;;;17.70;10.93;;;9.70;99.90;;;;;;4808755;29;20069;-72
2022/05/06 00:07:30;;;;;;;18.65;10.80;;;9.70;99.90;;;;;;4809615;29;20057;-72
2022/05/06 00:09:56;;;;;;;17.20;11.07;;;9.70;99.90;;;;;;4808222;29;20492;-71
2022/05/06 00:12:22;;;;;;;18.08;11.50;;;9.60;99.90;;;;;;4808215;29;20097;-71
2022/05/06 00:14:48;;;;;;;18.55;12.18;;;9.60;99.90;;;;;;4808138;29;20058;-72
2022/05/06 00:17:14;;;;;;;19.98;11.75;;;10.00;99.90;;;;;;4807078;29;20063;-71
2022/05/06 00:19:43;;;;;;;16.90;10.85;;;9.60;99.90;;;;;;4807126;29;20068;-71
2022/05/06 00:22:10;;;;;;;17.45;10.68;;;9.50;99.90;;;;;;4807079;29;20090;-71
2022/05/06 00:24:37;;;;;;;17.67;11.02;;;9.50;99.90;;;;;;4807757;29;20103;-72
2022/05/06 00:27:03;;;;;;;18.55;10.73;;;9.50;99.90;;;;;;4791984;29;20062;-71
2022/05/06 00:29:29;;;;;;;17.65;11.30;;;9.50;99.90;;;;;;4806668;29;20055;-72
2022/05/06 00:31:55;;;;;;;20.65;11.23;;;9.50;99.90;;;;;;4791679;29;20057;-71
2022/05/06 00:34:20;;;;;;;18.90;11.05;;;9.50;99.90;;;;;;4808057;29;20096;-71
2022/05/06 00:36:46;;;;;;;18.38;11.25;;;10.10;99.90;;;;;;4791859;29;20366;-72
2022/05/06 00:39:12;;;;;;;17.88;10.75;;;9.40;99.90;;;;;;4807050;29;20100;-71
2022/05/06 00:41:38;;;;;;;19.45;11.65;;;9.70;99.90;;;;;;4791568;29;20047;-71
2022/05/06 00:44:08;;;;;;;21.77;11.55;;;9.20;99.90;;;;;;4791726;29;20051;-71
2022/05/06 00:46:36;;;;;;;18.83;10.68;;;9.40;99.90;;;;;;4806367;29;20082;-71
2022/05/06 00:49:02;;;;;;;19.58;11.55;;;9.30;99.90;;;;;;4807571;29;20058;-71
2022/05/06 00:51:28;;;;;;;21.25;11.43;;;9.40;99.90;;;;;;4807567;29;20055;-72
2022/05/06 00:53:56;;;;;;;16.58;10.52;;;9.30;99.90;;;;;;4807449;29;20120;-71
2022/05/06 00:56:25;;;;;;;17.42;10.43;;;9.30;99.90;;;;;;4807470;29;20047;-71
2022/05/06 00:58:52;;;;;;;18.58;10.57;;;9.30;99.90;;;;;;4806112;29;20137;-71
2022/05/06 01:01:18;;;;;;;15.68;10.68;;;9.30;99.90;;;;;;4806399;29;20128;-71
2022/05/06 01:03:45;;;;;;;18.92;11.07;;;9.20;99.90;;;;;;4791615;29;20388;-71
2022/05/06 01:06:13;;;;;;;20.08;11.65;;;9.20;99.90;;;;;;4807767;29;20055;-71
2022/05/06 01:08:40;;;;;;;19.83;11.32;;;9.20;99.90;;;;;;4790868;29;20066;-71
2022/05/06 01:11:07;;;;;;;17.42;10.52;;;9.20;99.90;;;;;;4806520;29;20047;-71
2022/05/06 01:13:44;;;;;;;19.08;10.65;;;9.20;99.90;;;;;;4805696;29;20496;-71
2022/05/06 01:16:14;;;;;;;17.27;10.50;;;9.10;99.90;;;;;;4807752;29;20121;-71
2022/05/06 01:18:40;;;;;;;16.90;10.60;;;9.10;99.90;;;;;;4807630;29;20059;-70
2022/05/06 01:21:06;;;;;;;16.75;10.48;;;9.10;99.90;;;;;;4777004;29;20051;-71
2022/05/06 01:23:33;;;;;;;18.88;10.95;;;9.20;99.90;;;;;;4806354;29;20137;-71
2022/05/06 01:25:59;;;;;;;18.67;10.25;;;9.20;99.90;;;;;;4806620;29;20055;-71
2022/05/06 01:28:26;;;;;;;16.73;10.23;;;9.10;99.90;;;;;;4805747;29;20039;-71
2022/05/06 01:31:00;;;;;;;17.95;10.85;;;9.00;99.90;;;;;;4807186;29;20475;-71
2022/05/06 01:33:28;;;;;;;18.40;10.32;;;9.00;99.90;;;;;;4791021;29;20137;-71
2022/05/06 01:35:57;;;;;;;19.38;11.50;;;9.00;99.90;;;;;;4805426;29;20496;-71
2022/05/06 01:38:44;;;;;;;19.65;11.25;;;9.30;99.90;;;;;;4806119;29;20055;-71
2022/05/06 01:41:15;;;;;;;17.45;11.07;;;8.90;99.90;;;;;;4806150;29;20453;-71
2022/05/06 01:43:47;;;;;;;16.98;10.52;;;8.90;99.90;;;;;;4791351;29;20427;-71
2022/05/06 01:46:14;;;;;;;20.50;11.75;;;8.90;99.90;;;;;;4806662;29;20050;-71
2022/05/06 01:48:42;;;;;;;19.00;10.82;;;8.80;99.90;;;;;;4806676;29;20051;-71
2022/05/06 01:51:13;;;;;;;18.48;11.57;;;8.80;99.90;;;;;;4806664;29;20046;-71
2022/05/06 01:53:39;;;;;;;18.35;11.93;;;8.80;99.90;;;;;;4807444;29;20054;-71
2022/05/06 01:56:07;;;;;;;17.88;11.35;;;8.80;99.90;;;;;;4807195;29;20099;-72
2022/05/06 01:58:32;;;;;;;22.67;11.77;;;8.80;99.90;;;;;;4805685;29;20063;-72
2022/05/06 02:00:58;;;;;;;16.98;10.57;;;8.70;99.90;;;;;;4791376;29;20070;-71
2022/05/06 02:06:08;;;;;;;17.48;10.43;;;8.70;99.90;;;;;;4806262;29;20058;-71
2022/05/06 02:08:33;;;;;;;19.60;11.20;;;8.60;99.90;;;;;;4806698;29;20399;-70
2022/05/06 02:11:01;;;;;;;16.65;10.23;;;9.20;99.90;;;;;;4805147;29;20051;-71
2022/05/06 02:13:27;;;;;;;19.02;10.60;;;8.60;99.90;;;;;;4807017;29;20134;-71
2022/05/06 02:15:53;;;;;;;19.42;11.65;;;8.60;99.90;;;;;;4806420;29;20047;-72
2022/05/06 02:18:19;;;;;;;18.92;11.13;;;8.50;99.90;;;;;;4805892;29;20192;-71
2022/05/06 02:20:45;;;;;;;22.95;11.43;;;8.60;99.90;;;;;;4808027;29;20145;-71
2022/05/06 02:23:12;;;;;;;18.60;10.10;;;8.80;99.90;;;;;;4808764;29;20065;-70
2022/05/06 02:25:38;;;;;;;18.38;10.93;;;8.50;99.90;;;;;;4793710;29;20057;-71
2022/05/06 02:28:04;;;;;;;19.17;11.68;;;8.50;99.90;;;;;;4793905;29;20488;-71
2022/05/06 02:33:15;;;;;;;17.25;11.05;;;8.50;99.90;;;;;;4809587;29;20268;-71
2022/05/06 02:35:44;;;;;;;15.77;10.40;;;8.50;99.90;;;;;;4808726;29;20055;-71
2022/05/06 02:38:11;;;;;;;16.60;10.45;;;8.50;99.90;;;;;;4810390;29;20079;-71
2022/05/06 02:40:38;;;;;;;16.88;10.63;;;8.50;99.90;;;;;;4808624;29;20511;-71
2022/05/06 02:43:05;;;;;;;17.90;10.32;;;8.40;99.90;;;;;;4810098;29;20055;-71
2022/05/06 02:45:32;;;;;;;15.05;10.38;;;8.40;99.90;;;;;;4808320;29;20046;-71
2022/05/06 02:47:59;;;;;;;16.73;10.32;;;8.40;99.90;;;;;;4809149;29;20561;-71
2022/05/06 02:50:25;;;;;;;16.50;9.93;;;8.40;99.90;;;;;;4808295;29;20115;-71
2022/05/06 02:52:52;;;;;;;16.60;9.93;;;8.30;99.90;;;;;;4809412;29;20082;-71
2022/05/06 02:55:18;;;;;;;15.45;10.10;;;8.30;99.90;;;;;;4809878;29;20050;-71
2022/05/06 02:57:44;;;;;;;16.70;10.60;;;8.30;99.90;;;;;;4808389;29;20086;-71
2022/05/06 03:00:10;;;;;;;17.00;10.45;;;8.10;99.90;;;;;;4808791;29;20429;-71
2022/05/06 03:02:36;;;;;;;19.73;10.98;;;8.20;99.90;;;;;;4809204;29;20051;-71
2022/05/06 03:05:02;;;;;;;16.05;10.50;;;8.30;99.90;;;;;;4809920;29;20492;-71
2022/05/06 03:07:28;;;;;;;17.25;11.30;;;8.20;99.90;;;;;;4809214;29;20047;-71
2022/05/06 03:09:54;;;;;;;18.67;11.73;;;8.20;99.90;;;;;;4808177;29;20499;-71
2022/05/06 03:12:23;;;;;;;20.02;12.02;;;8.10;99.90;;;;;;4809371;29;20065;-71
2022/05/06 03:14:49;;;;;;;19.02;12.07;;;8.30;99.90;;;;;;4809036;29;20050;-71
2022/05/06 03:17:15;;;;;;;20.40;12.23;;;8.20;99.90;;;;;;4807897;29;20199;-71
2022/05/06 03:19:40;;;;;;;19.05;12.05;;;8.10;99.90;;;;;;4808052;29;20141;-72
2022/05/06 03:22:07;;;;;;;20.63;11.85;;;8.10;99.90;;;;;;4809028;29;20133;-72
2022/05/06 03:24:33;;;;;;;19.60;12.93;;;8.10;99.90;;;;;;4807660;29;20062;-71
2022/05/06 03:26:58;;;;;;;22.05;13.15;;;8.10;99.90;;;;;;4808847;29;20051;-71
2022/05/06 03:29:24;;;;;;;23.90;13.35;;;8.00;99.90;;;;;;4793038;29;20055;-71
2022/05/06 03:31:52;;;;;;;21.75;12.35;;;8.00;99.90;;;;;;4807882;29;20042;-71
2022/05/06 03:34:19;;;;;;;19.45;12.20;;;7.90;99.90;;;;;;4792945;29;20047;-71
2022/05/06 03:36:46;;;;;;;21.30;11.90;;;8.50;99.90;;;;;;4807462;29;20062;-71
2022/05/06 03:39:12;;;;;;;21.70;12.70;;;8.00;99.90;;;;;;4809402;29;20442;-71
2022/05/06 03:41:38;;;;;;;22.42;13.07;;;8.00;99.90;;;;;;4808681;29;20059;-71
2022/05/06 03:44:08;;;;;;;23.95;13.20;;;8.00;99.90;;;;;;4808603;29;20047;-72
2022/05/06 03:46:33;;;;;;;20.85;12.07;;;8.00;99.90;;;;;;4793319;29;20051;-70
2022/05/06 03:49:01;;;;;;;25.70;12.95;;;8.00;99.90;;;;;;4807560;29;20043;-71
2022/05/06 03:51:31;;;;;;;21.95;12.73;;;8.00;99.90;;;;;;4807331;29;20054;-71
2022/05/06 03:53:57;;;;;;;20.63;11.98;;;7.90;99.90;;;;;;4777689;29;20058;-71
2022/05/06 03:56:25;;;;;;;19.00;11.98;;;8.00;99.90;;;;;;4808374;29;20480;-71
2022/05/06 03:58:51;;;;;;;22.48;13.07;;;8.00;99.90;;;;;;4808275;29;20118;-72
2022/05/06 04:01:19;;;;;;;18.17;12.10;;;7.90;99.90;;;;;;4808258;29;20058;-71
2022/05/06 04:03:49;;;;;;;19.70;11.82;;;7.90;99.90;;;;;;4807551;29;20087;-71
2022/05/06 04:06:15;;;;;;;19.52;12.07;;;8.00;99.90;;;;;;4806949;29;20050;-71
2022/05/06 04:08:42;;;;;;;21.27;12.63;;;8.00;99.90;;;;;;4806976;29;20047;-71
2022/05/06 04:11:09;;;;;;;20.92;12.30;;;8.00;99.90;;;;;;4808115;29;20141;-71
2022/05/06 04:13:35;;;;;;;18.73;12.13;;;8.20;99.90;;;;;;4808086;29;20053;-71
2022/05/06 04:16:04;;;;;;;19.08;11.77;;;8.00;99.90;;;;;;4808006;29;20039;-71
2022/05/06 04:18:30;;;;;;;19.92;12.93;;;8.00;99.90;;;;;;4806834;29;20071;-71
2022/05/06 04:23:40;;;;;;;21.15;11.55;;;8.10;99.90;;;;;;4806960;29;20141;-71
2022/05/06 04:26:09;;;;;;;19.40;12.27;;;8.20;99.90;;;;;;4807504;29;20050;-71
2022/05/06 04:28:35;;;;;;;21.75;13.80;;;8.20;99.90;;;;;;4806768;29;20055;-72
2022/05/06 04:31:02;;;;;;;18.67;11.70;;;8.30;99.90;;;;;;4807353;29;20412;-72
2022/05/06 04:33:28;;;;;;;18.40;11.40;;;8.30;99.90;;;;;;4807678;29;20050;-71
2022/05/06 04:35:56;;;;;;;21.08;12.50;;;8.80;99.90;;;;;;4807714;29;20389;-71
2022/05/06 04:38:23;;;;;;;19.63;12.48;;;8.40;99.90;;;;;;4807648;29;20054;-71
2022/05/06 04:40:49;;;;;;;21.67;12.13;;;8.60;99.90;;;;;;4807361;29;20362;-71
2022/05/06 04:43:18;;;;;;;22.00;12.65;;;8.50;99.90;;;;;;4805840;29;20051;-71
2022/05/06 04:45:43;;;;;;;23.90;14.13;;;8.60;99.90;;;;;;4807028;29;20051;-71
2022/05/06 04:48:11;;;;;;;23.77;14.65;;;8.70;99.90;;;;;;4807461;29;20119;-71
2022/05/06 04:50:38;;;;;;;23.20;13.55;;;8.70;99.90;;;;;;4791422;29;20058;-71
2022/05/06 04:53:07;;;;;;;25.83;14.15;;;8.70;99.90;;;;;;4807375;29;20098;-71
2022/05/06 04:55:36;;;;;;;23.52;13.85;;;8.80;99.90;;;;;;4807833;29;20115;-71
2022/05/06 04:58:03;;;;;;;24.77;15.43;;;8.90;99.90;;;;;;4791444;29;20051;-71
2022/05/06 05:00:29;;;;;;;24.02;14.43;;;8.90;99.90;;;;;;4807386;29;20051;-71
2022/05/06 05:02:55;;;;;;;24.63;14.75;;;9.00;99.90;;;;;;4807238;29;20130;-71
2022/05/06 05:05:21;;;;;;;21.52;13.82;;;9.00;99.90;;;;;;4807118;29;20051;-71
2022/05/06 05:07:47;;;;;;;24.90;14.48;;;9.10;99.90;;;;;;4807193;29;20058;-71
2022/05/06 05:10:13;;;;;;;25.00;14.23;;;9.10;99.90;;;;;;4806495;29;20062;-70
2022/05/06 05:12:39;;;;;;;22.63;14.50;;;9.10;99.90;;;;;;4807090;29;20054;-71
2022/05/06 05:15:06;;;;;;;27.23;15.05;;;9.10;99.90;;;;;;4807071;29;20460;-71
2022/05/06 05:17:31;;;;;;;25.02;14.70;;;9.20;99.90;;;;;;4806201;29;20072;-71
2022/05/06 05:19:57;;;;;;;23.35;13.48;;;9.30;99.90;;;;;;4806547;29;20133;-71
2022/05/06 05:22:23;;;;;;;24.85;14.95;;;9.30;99.90;;;;;;4805736;29;20395;-71
2022/05/06 05:24:49;;;;;;;25.00;15.13;;;9.40;99.90;;;;;;4806821;29;20112;-71
2022/05/06 05:27:15;;;;;;;22.00;14.20;;;9.40;99.90;;;;;;4791230;29;20508;-71
2022/05/06 05:29:42;;;;;;;21.52;13.63;;;9.50;99.90;;;;;;4805753;29;20111;-71
2022/05/06 05:32:08;;;;;;;23.20;14.52;;;9.50;99.90;;;;;;4806796;29;20054;-71
2022/05/06 05:34:34;;;;;;;27.63;17.15;;;9.60;99.90;;;;;;4775603;29;20502;-71
2022/05/06 05:37:01;;;;;;;28.83;17.27;;;9.70;99.90;;;;;;4805491;29;20511;-71
2022/05/06 05:39:26;;;;;;;29.60;16.88;;;9.70;99.90;;;;;;4807178;29;20054;-71
2022/05/06 05:41:52;;;;;;;31.83;16.73;;;9.80;99.90;;;;;;4807421;29;20165;-71
2022/05/06 05:49:48;;;;;;;32.33;17.25;;;9.90;99.90;;;;;;4806897;29;20062;-71
2022/05/06 05:52:14;;;;;;;28.92;17.92;;;10.00;99.90;;;;;;4806563;29;20058;-70
2022/05/06 05:54:40;;;;;;;31.92;18.38;;;10.00;99.90;;;;;;4806199;29;20057;-71
2022/05/06 05:57:06;;;;;;;34.20;19.10;;;10.10;99.90;;;;;;4805517;29;20137;-71
2022/05/06 05:59:33;;;;;;;28.85;17.88;;;10.10;99.90;;;;;;4806178;29;20535;-71
2022/05/06 06:02:01;;;;;;;31.63;17.60;;;10.10;99.90;;;;;;4806491;29;20473;-70
2022/05/06 06:04:27;;;;;;;33.50;18.42;;;10.20;99.90;;;;;;4805479;29;20514;-71
2022/05/06 06:06:53;;;;;;;34.40;18.17;;;10.30;99.90;;;;;;4805125;29;20054;-70
2022/05/06 06:09:22;;;;;;;30.73;18.98;;;10.30;99.90;;;;;;4806418;29;20433;-70
2022/05/06 06:11:49;;;;;;;31.55;18.90;;;10.40;99.90;;;;;;4791147;29;20499;-71
2022/05/06 06:14:16;;;;;;;29.88;18.42;;;10.40;99.90;;;;;;4805419;29;20070;-71
2022/05/06 06:16:42;;;;;;;32.08;19.77;;;10.50;99.90;;;;;;4806289;29;20061;-71
2022/05/06 06:19:08;;;;;;;30.80;18.00;;;10.60;99.90;;;;;;4807264;29;20063;-71
2022/05/06 06:21:34;;;;;;;35.88;19.58;;;10.60;99.90;;;;;;4806283;29;20269;-71
2022/05/06 06:24:00;;;;;;;33.85;18.58;;;10.80;99.90;;;;;;4806278;29;20125;-71
2022/05/06 06:26:26;;;;;;;34.92;19.60;;;10.80;99.90;;;;;;4805037;29;20051;-71
2022/05/06 06:28:52;;;;;;;38.88;20.75;;;10.90;99.90;;;;;;4805169;29;20051;-71
2022/05/06 06:31:17;;;;;;;35.53;21.35;;;10.90;99.90;;;;;;4804958;29;20086;-71
2022/05/06 06:33:43;;;;;;;39.05;21.52;;;11.00;99.90;;;;;;4805280;29;20055;-71
2022/05/06 06:36:09;;;;;;;38.13;21.50;;;11.10;99.90;;;;;;4806460;29;20473;-71
2022/05/06 06:38:35;;;;;;;36.90;20.70;;;11.20;99.90;;;;;;4805066;29;20134;-71
2022/05/06 06:41:02;;;;;;;34.60;19.55;;;11.20;99.90;;;;;;4790240;29;20090;-71
2022/05/06 06:43:27;;;;;;;32.17;20.27;;;11.30;99.90;;;;;;4806196;29;20496;-71
2022/05/06 06:45:54;;;;;;;30.17;19.50;;;11.40;99.90;;;;;;4806062;29;20047;-70
2022/05/06 06:48:19;;;;;;;32.22;18.90;;;11.60;99.90;;;;;;4805139;29;20348;-71
2022/05/06 07:33:58;;;;;;;30.48;17.23;;;12.30;99.90;;;;;;4880671;24;20508;-70
2022/05/06 07:36:24;;;;;;;28.80;17.02;;;12.30;99.90;;;;;;4823508;29;20061;-72
2022/05/06 07:38:50;;;;;;;28.05;16.75;;;12.30;99.90;;;;;;4826596;29;20129;-70
2022/05/06 07:41:16;;;;;;;28.20;16.60;;;12.40;99.90;;;;;;4825754;29;20096;-70
2022/05/06 07:43:42;;;;;;;25.50;16.30;;;12.50;99.90;;;;;;4826806;29;20090;-71
2022/05/06 07:46:10;;;;;;;25.65;16.20;;;12.60;99.90;;;;;;4826425;29;20391;-70
2022/05/06 07:48:40;;;;;;;26.23;16.63;;;12.70;99.90;;;;;;4825548;29;20050;-70
2022/05/06 07:51:06;;;;;;;27.00;16.52;;;12.80;99.90;;;;;;4825449;29;20046;-71
2022/05/06 07:53:32;;;;;;;29.02;16.13;;;12.90;99.90;;;;;;4826584;29;20057;-70
2022/05/06 07:55:57;;;;;;;26.50;16.52;;;12.90;99.90;;;;;;4823466;29;20054;-73
2022/05/06 07:58:23;;;;;;;26.55;16.73;;;13.00;99.90;;;;;;4816595;29;20042;-75
2022/05/06 08:00:50;;;;;;;27.17;15.80;;;13.10;99.90;;;;;;4815895;29;20051;-75
2022/05/06 08:06:02;;;;;;;25.63;15.70;;;13.30;99.90;;;;;;4797654;29;20046;-75
2022/05/06 08:08:29;;;;;;;26.73;16.05;;;13.40;99.90;;;;;;4816632;29;20051;-74
2022/05/06 08:10:54;;;;;;;24.27;15.20;;;13.50;99.90;;;;;;4797462;29;20085;-75
2022/05/06 08:13:20;;;;;;;25.38;16.52;;;13.50;99.90;;;;;;4818039;29;20086;-76
2022/05/06 08:15:48;;;;;;;24.73;15.27;;;13.60;99.90;;;;;;4816164;29;20121;-75
2022/05/06 08:18:14;;;;;;;22.42;14.82;;;13.60;99.90;;;;;;4802274;29;20051;-75
2022/05/06 08:20:41;;;;;;;24.48;15.43;;;13.70;99.90;;;;;;4817172;29;20488;-75
2022/05/06 08:23:08;;;;;;;24.17;15.07;;;13.80;99.90;;;;;;4800015;29;20046;-75
2022/05/06 08:25:34;;;;;;;21.50;14.32;;;13.80;99.90;;;;;;4816286;29;20122;-74
2022/05/06 08:27:59;;;;;;;22.63;15.88;;;13.90;99.90;;;;;;4816535;29;20117;-75
2022/05/06 08:30:25;;;;;;;24.55;14.73;;;14.00;99.90;;;;;;4814327;29;20106;-72
2022/05/06 08:32:51;;;;;;;22.98;15.85;;;14.10;99.90;;;;;;4814233;29;20400;-72
2022/05/06 08:35:19;;;;;;;23.27;15.13;;;14.10;99.90;;;;;;4814636;29;20088;-73
2022/05/06 08:37:48;;;;;;;21.52;14.60;;;14.30;99.90;;;;;;4805752;29;20050;-72
2022/05/06 08:40:25;;;;;;;22.20;13.45;;;14.30;99.90;;;;;;4820480;29;20102;-73
2022/05/06 08:42:52;;;;;;;19.95;13.60;;;14.50;99.90;;;;;;4813539;29;20494;-72
2022/05/06 08:50:54;;;;;;;17.73;11.98;;;14.80;99.90;;;;;;4818013;29;20070;-72
2022/05/06 08:53:21;;;;;;;16.25;11.10;;;14.90;99.90;;;;;;4819773;29;20050;-72
2022/05/06 08:55:48;;;;;;;16.38;10.43;;;15.00;99.90;;;;;;4813386;29;20058;-71
2022/05/06 08:58:14;;;;;;;14.13;10.73;;;15.00;99.90;;;;;;4817206;29;20138;-72
2022/05/06 09:00:40;;;;;;;16.63;11.02;;;15.10;99.90;;;;;;4815333;29;20612;-72
2022/05/06 09:03:05;;;;;;;15.00;9.57;;;15.10;99.90;;;;;;4817037;29;20054;-72
2022/05/06 09:05:31;;;;;;;13.05;9.82;;;15.10;99.90;;;;;;4800726;29;20081;-72
2022/05/06 09:07:59;;;;;;;14.95;10.43;;;15.10;99.90;;;;;;4816607;29;20042;-72
2022/05/06 09:10:26;;;;;;;14.48;10.00;;;15.10;99.90;;;;;;4817669;29;20387;-72
2022/05/06 09:12:59;;;;;;;13.98;9.55;;;15.00;99.90;;;;;;4814933;29;20057;-72
2022/05/06 09:18:17;;;;;;;14.35;10.48;;;15.10;99.90;;;;;;4831297;29;20498;-71
2022/05/06 09:20:43;;;;;;;17.33;10.93;;;15.10;99.90;;;;;;4815815;29;20051;-72
2022/05/06 09:23:38;;;;;;;13.77;10.35;;;15.10;99.90;;;;;;4820175;29;20061;-72
2022/05/06 09:26:16;;;;;;;14.98;9.82;;;15.20;99.90;;;;;;4810479;29;20066;-72
2022/05/06 09:28:41;;;;;;;13.18;9.73;;;15.20;99.90;;;;;;4817443;29;20082;-72
2022/05/06 09:31:09;;;;;;;15.07;9.30;;;15.20;99.90;;;;;;4814696;29;20105;-72
2022/05/06 09:33:40;;;;;;;14.02;9.43;;;15.10;99.90;;;;;;4814946;29;20054;-72
2022/05/06 09:36:29;;;;;;;13.43;9.18;;;15.10;99.90;;;;;;4817317;29;20058;-72
2022/05/06 09:39:10;;;;;;;14.23;8.60;;;15.00;99.90;;;;;;4807937;29;20586;-72
2022/05/06 09:41:38;;;;;;;13.00;8.20;;;14.90;99.90;;;;;;4818717;29;20483;-72
2022/05/06 09:44:09;;;;;;;12.20;8.73;;;14.90;99.90;;;;;;4815138;29;20474;-72
2022/05/06 09:46:35;;;;;;;14.90;9.68;;;14.90;99.90;;;;;;4815364;29;20576;-72
2022/05/06 09:49:03;;;;;;;13.23;8.63;;;14.90;99.90;;;;;;4827913;29;20043;-72
2022/05/06 09:51:33;;;;;;;8.85;6.75;;;15.00;99.90;;;;;;4808131;29;20957;-73
2022/05/06 09:53:59;;;;;;;10.02;6.47;;;15.00;99.90;;;;;;4814968;29;20111;-72
2022/05/06 09:56:27;;;;;;;8.13;5.25;;;15.10;99.90;;;;;;4814915;29;20090;-72
2022/05/06 09:58:54;;;;;;;7.88;5.85;;;15.10;99.90;;;;;;4816685;29;20111;-72
2022/05/06 10:01:21;;;;;;;11.23;6.88;;;15.20;99.90;;;;;;4813853;29;20110;-72
2022/05/06 10:03:47;;;;;;;9.85;6.25;;;15.30;99.90;;;;;;4800409;29;20046;-70
2022/05/06 10:06:14;;;;;;;10.48;6.65;;;15.30;99.90;;;;;;4815709;29;20077;-72
2022/05/06 10:08:52;;;;;;;9.02;6.38;;;15.40;99.90;;;;;;4820194;29;20130;-76
2022/05/06 10:11:29;;;;;;;8.80;5.82;;;15.50;99.90;;;;;;4805571;29;20059;-73
2022/05/06 10:14:01;;;;;;;7.72;4.65;;;15.60;99.90;;;;;;4806171;29;20055;-73
2022/05/06 10:16:36;;;;;;;6.68;4.57;;;15.70;99.90;;;;;;4806121;29;20051;-73
2022/05/06 10:19:03;;;;;;;7.95;4.82;;;15.80;99.90;;;;;;4805330;29;20051;-72
2022/05/06 10:21:47;;;;;;;5.93;4.60;;;15.90;99.90;;;;;;4790078;29;20493;-73
2022/05/06 10:24:16;;;;;;;7.35;4.90;;;16.00;99.90;;;;;;4806181;29;20051;-73
2022/05/06 10:26:51;;;;;;;3.40;2.50;;;16.10;99.90;;;;;;4806001;29;20055;-73
2022/05/06 10:32:25;;;;;;;4.75;3.33;;;16.30;99.90;;;;;;4805672;29;20510;-74
2022/05/06 10:35:02;;;;;;;6.80;4.43;;;16.30;99.90;;;;;;4806081;29;20145;-73
2022/05/06 10:37:40;;;;;;;4.50;3.35;;;16.40;99.90;;;;;;4805902;29;20142;-73
2022/05/06 10:40:54;;;;;;;4.32;3.10;;;16.40;99.90;;;;;;4806160;29;20138;-73
2022/05/06 10:43:41;;;;;;;4.43;3.38;;;16.50;99.90;;;;;;4771399;30;20055;-74
2022/05/06 10:46:07;;;;;;;3.95;2.70;;;16.50;99.90;;;;;;4808512;29;20496;-73
2022/05/06 10:48:33;;;;;;;4.45;3.05;;;16.60;99.90;;;;;;4809452;29;20054;-73
2022/05/06 10:51:22;;;;;;;4.85;2.70;;;16.70;99.90;;;;;;4793360;29;20065;-73
2022/05/06 10:53:48;;;;;;;3.10;2.30;;;16.80;99.90;;;;;;4808283;29;20063;-71
2022/05/06 10:56:17;;;;;;;3.33;2.60;;;16.90;99.90;;;;;;4809226;29;20043;-71
2022/05/06 10:58:43;;;;;;;4.10;2.63;;;16.90;99.90;;;;;;4809399;29;20112;-71
2022/05/06 11:01:18;;;;;;;3.50;2.38;;;17.00;99.90;;;;;;4808492;29;20054;-72
2022/05/06 11:03:51;;;;;;;2.72;2.00;;;17.00;99.90;;;;;;4807589;29;20050;-71
2022/05/06 11:06:21;;;;;;;3.88;2.20;;;17.00;99.90;;;;;;4809167;29;20054;-72
2022/05/06 11:08:47;;;;;;;3.85;2.90;;;17.10;99.90;;;;;;4823102;29;20467;-72
2022/05/06 11:11:17;;;;;;;3.40;2.00;;;17.20;99.90;;;;;;4808182;29;20138;-71
2022/05/06 11:13:47;;;;;;;2.53;1.52;;;17.20;99.90;;;;;;4823320;29;20063;-72
2022/05/06 11:16:14;;;;;;;1.67;1.23;;;17.30;99.90;;;;;;4809499;29;20108;-71
2022/05/06 11:18:44;;;;;;;2.10;1.63;;;17.50;99.90;;;;;;4816022;29;20057;-71
2022/05/06 11:21:23;;;;;;;2.85;1.90;;;17.50;99.90;;;;;;4808739;29;20062;-73
2022/05/06 11:23:50;;;;;;;3.95;1.83;;;17.50;99.90;;;;;;4809292;29;20135;-72
2022/05/06 11:26:24;;;;;;;2.15;1.65;;;17.50;99.90;;;;;;4822694;29;20196;-73
2022/05/06 11:29:05;;;;;;;2.97;1.00;;;17.60;99.90;;;;;;4807567;29;20054;-73
2022/05/06 11:31:32;;;;;;;1.65;1.33;;;17.70;99.90;;;;;;4808582;29;20381;-73
2022/05/06 11:34:05;;;;;;;1.60;1.17;;;17.80;99.90;;;;;;4798312;29;20101;-72
2022/05/06 11:36:31;;;;;;;1.80;1.25;;;17.80;99.90;;;;;;4810784;29;20373;-72
2022/05/06 11:38:56;;;;;;;2.75;1.40;;;17.80;99.90;;;;;;4817792;29;20180;-70
2022/05/06 11:41:24;;;;;;;1.23;1.13;;;17.90;99.90;;;;;;4814683;29;20133;-69
2022/05/06 11:43:50;;;;;;;1.92;1.23;;;18.00;99.90;;;;;;4814575;29;20416;-70
2022/05/06 11:49:02;;;;;;;2.85;2.00;;;18.00;99.70;;;;;;4832205;29;20059;-70
2022/05/06 11:51:35;;;;;;;2.55;1.83;;;18.10;99.50;;;;;;4813807;29;20100;-70
2022/05/06 11:54:01;;;;;;;3.92;2.40;;;18.10;98.20;;;;;;4812677;29;20129;-71
2022/05/06 11:56:28;;;;;;;1.70;1.60;;;18.20;98.90;;;;;;4819286;29;20121;-71
2022/05/06 11:58:58;;;;;;;1.80;1.38;;;18.30;98.40;;;;;;4832873;29;20458;-71
2022/05/06 12:01:29;;;;;;;1.52;1.17;;;18.30;98.40;;;;;;4818419;29;20046;-72
2022/05/06 12:04:15;;;;;;;2.80;1.13;;;18.30;97.20;;;;;;4803104;29;20065;-71
2022/05/06 12:06:48;;;;;;;1.80;1.38;;;18.30;96.00;;;;;;4819017;29;20058;-72
2022/05/06 12:09:18;;;;;;;1.27;0.80;;;18.30;95.80;;;;;;4818195;29;20060;-71
2022/05/06 12:11:45;;;;;;;1.17;0.90;;;18.40;95.40;;;;;;4818592;29;20474;-72
2022/05/06 12:14:19;;;;;;;1.40;1.10;;;18.40;93.60;;;;;;4818187;29;20054;-70
2022/05/06 12:17:02;;;;;;;3.60;1.35;;;18.50;93.60;;;;;;4816966;29;20391;-72
2022/05/06 12:19:43;;;;;;;2.15;1.02;;;18.50;92.20;;;;;;4818444;29;20060;-71
2022/05/06 12:22:21;;;;;;;1.75;1.17;;;18.50;90.20;;;;;;4819631;29;20053;-71
2022/05/06 12:24:50;;;;;;;1.77;1.50;;;18.60;90.60;;;;;;4819079;29;20078;-71
2022/05/06 12:27:27;;;;;;;1.58;1.10;;;18.60;91.20;;;;;;4817383;29;20066;-72
2022/05/06 12:29:53;;;;;;;2.47;1.27;;;18.70;90.90;;;;;;4816550;29;20062;-72
2022/05/06 12:32:19;;;;;;;1.38;1.10;;;18.80;90.30;;;;;;4835562;29;20095;-71
2022/05/06 12:34:45;;;;;;;1.85;1.30;;;18.70;90.40;;;;;;4825992;29;20128;-72
2022/05/06 12:37:19;;;;;;;3.55;1.42;;;18.80;90.30;;;;;;4824909;29;20054;-74
2022/05/06 12:39:49;;;;;;;2.38;1.10;;;18.80;90.70;;;;;;4824711;29;20047;-74
2022/05/06 12:42:18;;;;;;;1.83;1.30;;;18.90;90.90;;;;;;4824826;29;20106;-72
2022/05/06 12:44:45;;;;;;;2.88;1.10;;;19.00;90.90;;;;;;4824401;29;20423;-74
2022/05/06 12:50:04;;;;;;;4.63;1.05;;;19.10;90.30;;;;;;4824511;29;20488;-74
2022/05/06 12:52:31;;;;;;;1.95;0.90;;;19.10;90.00;;;;;;4825587;29;20133;-74
2022/05/06 12:54:57;;;;;;;1.05;0.82;;;19.10;90.40;;;;;;4824132;29;20147;-75
2022/05/06 12:57:24;;;;;;;2.05;1.23;;;19.20;90.50;;;;;;4824356;29;20082;-74
2022/05/06 12:59:50;;;;;;;1.30;0.90;;;19.20;89.70;;;;;;4809488;29;20058;-78
2022/05/06 13:02:16;;;;;;;4.18;1.00;;;19.30;90.00;;;;;;4809090;29;20124;-77
2022/05/06 13:04:42;;;;;;;2.17;1.00;;;19.30;88.70;;;;;;4824400;29;20058;-77
2022/05/06 13:07:08;;;;;;;2.00;1.00;;;19.30;89.00;;;;;;4808914;29;20093;-78
2022/05/06 13:09:33;;;;;;;2.45;0.90;;;19.30;89.30;;;;;;4824018;29;20048;-76
2022/05/06 13:12:02;;;;;;;2.35;0.90;;;19.30;88.70;;;;;;4825556;29;20411;-74
2022/05/06 13:14:28;;;;;;;2.83;0.70;;;19.40;88.90;;;;;;4823990;29;20130;-77
2022/05/06 13:16:53;;;;;;;2.08;1.00;;;19.50;88.80;;;;;;4823440;29;20129;-75
2022/05/06 13:27:05;;;;;;;0.90;0.70;;;19.70;90.00;;;;;;5267270;24;20074;-73
2022/05/06 13:29:31;;;;;;;1.27;0.73;;;19.80;90.30;;;;;;4821340;29;20062;-72
2022/05/06 13:31:57;;;;;;;0.85;0.70;;;19.80;89.90;;;;;;4838726;29;20078;-71
2022/05/06 13:34:23;;;;;;;1.67;0.70;;;19.80;88.90;;;;;;4824986;29;20058;-72
2022/05/06 13:36:49;;;;;;;1.13;0.55;;;19.90;87.80;;;;;;4824097;29;20394;-71
2022/05/06 13:39:14;;;;;;;1.63;0.80;;;20.00;88.90;;;;;;4838702;29;20098;-71
2022/05/06 13:41:41;;;;;;;1.00;0.73;;;20.00;88.30;;;;;;4825158;29;20137;-72
2022/05/06 13:44:08;;;;;;;1.92;0.80;;;20.10;87.90;;;;;;4824891;29;20058;-71
2022/05/06 13:46:33;;;;;;;1.83;1.17;;;20.20;88.00;;;;;;4823429;29;20473;-70
2022/05/06 13:48:59;;;;;;;2.35;1.27;;;20.20;87.50;;;;;;4824885;29;20142;-72
2022/05/06 13:51:25;;;;;;;1.75;0.98;;;20.20;88.10;;;;;;4824849;29;20115;-71
2022/05/06 13:53:50;;;;;;;1.80;0.80;;;20.00;88.10;;;;;;4824277;29;20050;-72
2022/05/06 13:59:04;;;;;;;1.58;0.70;;;19.90;89.70;;;;;;4824538;29;20137;-72
2022/05/06 14:01:30;;;;;;;1.20;0.88;;;20.00;89.70;;;;;;4838680;29;20471;-71
2022/05/06 14:03:56;;;;;;;3.08;1.25;;;20.00;89.50;;;;;;4824712;29;20517;-71
2022/05/06 14:06:22;;;;;;;2.85;1.30;;;19.90;90.10;;;;;;4824524;29;20047;-72
2022/05/06 14:08:48;;;;;;;2.97;1.20;;;19.80;90.40;;;;;;4824517;29;20050;-70